sensor_id;sensor_type;location;lat;lon;timestamp;P1;durP1;ratioP1;P2;durP2;ratioP2
75417;SDS011;63997;52.112;5.420;2023-04-03T00:00:34;1.27;;;0.50;;
75417;SDS011;63997;52.112;5.420;2023-04-03T00:03:01;1.33;;;0.55;;
75417;SDS011;63997;52.112;5.420;2023-04-03T00:05:27;0.98;;;0.50;;
75417;SDS011;63997;52.112;5.420;2023-04-03T00:07:54;1.40;;;0.38;;
75417;SDS011;63997;52.112;5.420;2023-04-03T00:10:21;3.97;;;0.60;;
75417;SDS011;63997;52.112;5.420;2023-04-03T00:12:47;2.03;;;0.68;;
75417;SDS011;63997;52.112;5.420;2023-04-03T00:15:14;1.95;;;0.70;;
75417;SDS011;63997;52.112;5.420;2023-04-03T00:17:40;0.90;;;0.40;;
75417;SDS011;63997;52.112;5.420;2023-04-03T00:20:07;3.80;;;0.70;;
75417;SDS011;63997;52.112;5.420;2023-04-03T00:22:34;3.53;;;0.77;;
75417;SDS011;63997;52.112;5.420;2023-04-03T00:25:01;3.90;;;0.60;;
75417;SDS011;63997;52.112;5.420;2023-04-03T00:27:27;1.83;;;0.60;;
75417;SDS011;63997;52.112;5.420;2023-04-03T00:29:53;2.60;;;0.50;;
75417;SDS011;63997;52.112;5.420;2023-04-03T00:32:20;0.85;;;0.40;;
75417;SDS011;63997;52.112;5.420;2023-04-03T00:34:46;1.70;;;0.47;;
75417;SDS011;63997;52.112;5.420;2023-04-03T00:37:12;1.83;;;0.80;;
75417;SDS011;63997;52.112;5.420;2023-04-03T00:39:39;1.58;;;0.65;;
75417;SDS011;63997;52.112;5.420;2023-04-03T00:42:05;3.50;;;0.47;;
75417;SDS011;63997;52.112;5.420;2023-04-03T00:47:01;1.63;;;0.60;;
75417;SDS011;63997;52.112;5.420;2023-04-03T00:49:31;1.77;;;0.90;;
75417;SDS011;63997;52.112;5.420;2023-04-03T00:51:58;3.05;;;0.47;;
75417;SDS011;63997;52.112;5.420;2023-04-03T00:54:25;2.45;;;0.50;;
75417;SDS011;63997;52.112;5.420;2023-04-03T00:56:52;3.80;;;0.60;;
75417;SDS011;63997;52.112;5.420;2023-04-03T00:59:26;2.38;;;0.80;;
75417;SDS011;63997;52.112;5.420;2023-04-03T01:02:00;1.33;;;0.47;;
75417;SDS011;63997;52.112;5.420;2023-04-03T01:04:40;1.30;;;0.70;;
75417;SDS011;63997;52.112;5.420;2023-04-03T01:07:10;2.72;;;0.68;;
75417;SDS011;63997;52.112;5.420;2023-04-03T01:09:38;3.15;;;0.75;;
75417;SDS011;63997;52.112;5.420;2023-04-03T01:12:25;2.72;;;0.93;;
75417;SDS011;63997;52.112;5.420;2023-04-03T01:15:01;2.30;;;0.40;;
75417;SDS011;63997;52.112;5.420;2023-04-03T01:17:32;1.45;;;0.50;;
75417;SDS011;63997;52.112;5.420;2023-04-03T01:22:59;1.77;;;0.80;;
75417;SDS011;63997;52.112;5.420;2023-04-03T01:25:50;2.17;;;0.60;;
75417;SDS011;63997;52.112;5.420;2023-04-03T01:28:20;2.33;;;0.97;;
75417;SDS011;63997;52.112;5.420;2023-04-03T01:30:56;3.25;;;0.60;;
75417;SDS011;63997;52.112;5.420;2023-04-03T01:33:30;2.17;;;0.60;;
75417;SDS011;63997;52.112;5.420;2023-04-03T01:35:56;3.45;;;0.82;;
75417;SDS011;63997;52.112;5.420;2023-04-03T01:38:22;1.38;;;0.45;;
75417;SDS011;63997;52.112;5.420;2023-04-03T01:40:49;1.90;;;0.57;;
75417;SDS011;63997;52.112;5.420;2023-04-03T01:43:16;5.00;;;0.57;;
75417;SDS011;63997;52.112;5.420;2023-04-03T01:45:42;1.48;;;0.68;;
75417;SDS011;63997;52.112;5.420;2023-04-03T01:48:09;1.67;;;0.75;;
75417;SDS011;63997;52.112;5.420;2023-04-03T01:50:35;1.65;;;0.50;;
75417;SDS011;63997;52.112;5.420;2023-04-03T01:53:02;1.10;;;0.47;;
75417;SDS011;63997;52.112;5.420;2023-04-03T01:55:29;1.33;;;0.75;;
75417;SDS011;63997;52.112;5.420;2023-04-03T01:57:55;2.65;;;0.70;;
75417;SDS011;63997;52.112;5.420;2023-04-03T02:00:21;3.33;;;0.73;;
75417;SDS011;63997;52.112;5.420;2023-04-03T02:02:48;2.35;;;0.85;;
75417;SDS011;63997;52.112;5.420;2023-04-03T02:05:14;3.57;;;0.63;;
75417;SDS011;63997;52.112;5.420;2023-04-03T02:07:41;1.52;;;0.65;;
75417;SDS011;63997;52.112;5.420;2023-04-03T02:10:07;1.65;;;0.95;;
75417;SDS011;63997;52.112;5.420;2023-04-03T02:12:34;3.58;;;0.70;;
75417;SDS011;63997;52.112;5.420;2023-04-03T02:15:00;3.28;;;0.80;;
75417;SDS011;63997;52.112;5.420;2023-04-03T02:17:27;2.10;;;0.60;;
75417;SDS011;63997;52.112;5.420;2023-04-03T02:19:53;2.05;;;0.63;;
75417;SDS011;63997;52.112;5.420;2023-04-03T02:22:19;1.67;;;0.38;;
75417;SDS011;63997;52.112;5.420;2023-04-03T02:24:46;3.13;;;0.85;;
75417;SDS011;63997;52.112;5.420;2023-04-03T02:27:12;2.03;;;0.60;;
75417;SDS011;63997;52.112;5.420;2023-04-03T02:29:39;1.67;;;0.57;;
75417;SDS011;63997;52.112;5.420;2023-04-03T02:32:05;0.95;;;0.50;;
75417;SDS011;63997;52.112;5.420;2023-04-03T02:34:31;2.90;;;0.47;;
75417;SDS011;63997;52.112;5.420;2023-04-03T02:36:58;1.70;;;0.60;;
75417;SDS011;63997;52.112;5.420;2023-04-03T02:39:24;1.17;;;0.50;;
75417;SDS011;63997;52.112;5.420;2023-04-03T02:41:51;2.17;;;0.77;;
75417;SDS011;63997;52.112;5.420;2023-04-03T02:44:17;2.10;;;0.73;;
75417;SDS011;63997;52.112;5.420;2023-04-03T02:46:44;1.85;;;0.50;;
75417;SDS011;63997;52.112;5.420;2023-04-03T02:49:11;2.00;;;0.63;;
75417;SDS011;63997;52.112;5.420;2023-04-03T02:51:37;3.03;;;0.60;;
75417;SDS011;63997;52.112;5.420;2023-04-03T02:54:03;3.77;;;0.90;;
75417;SDS011;63997;52.112;5.420;2023-04-03T02:56:30;1.30;;;0.60;;
75417;SDS011;63997;52.112;5.420;2023-04-03T02:58:56;2.03;;;0.70;;
75417;SDS011;63997;52.112;5.420;2023-04-03T03:01:23;3.45;;;0.77;;
75417;SDS011;63997;52.112;5.420;2023-04-03T03:03:49;1.85;;;0.70;;
75417;SDS011;63997;52.112;5.420;2023-04-03T03:06:16;2.37;;;0.73;;
75417;SDS011;63997;52.112;5.420;2023-04-03T03:08:43;4.22;;;1.00;;
75417;SDS011;63997;52.112;5.420;2023-04-03T03:11:09;3.17;;;0.93;;
75417;SDS011;63997;52.112;5.420;2023-04-03T03:13:36;1.52;;;0.50;;
75417;SDS011;63997;52.112;5.420;2023-04-03T03:16:03;1.10;;;0.50;;
75417;SDS011;63997;52.112;5.420;2023-04-03T03:18:30;7.87;;;0.77;;
75417;SDS011;63997;52.112;5.420;2023-04-03T03:20:58;2.58;;;0.95;;
75417;SDS011;63997;52.112;5.420;2023-04-03T03:23:26;2.55;;;0.80;;
75417;SDS011;63997;52.112;5.420;2023-04-03T03:25:54;1.40;;;0.60;;
75417;SDS011;63997;52.112;5.420;2023-04-03T03:28:22;3.63;;;0.68;;
75417;SDS011;63997;52.112;5.420;2023-04-03T03:30:49;2.33;;;0.73;;
75417;SDS011;63997;52.112;5.420;2023-04-03T03:33:16;3.03;;;0.65;;
75417;SDS011;63997;52.112;5.420;2023-04-03T03:35:43;2.55;;;0.60;;
75417;SDS011;63997;52.112;5.420;2023-04-03T03:38:10;3.88;;;0.80;;
75417;SDS011;63997;52.112;5.420;2023-04-03T03:40:36;1.25;;;0.70;;
75417;SDS011;63997;52.112;5.420;2023-04-03T03:43:03;2.60;;;1.20;;
75417;SDS011;63997;52.112;5.420;2023-04-03T03:45:29;4.32;;;0.75;;
75417;SDS011;63997;52.112;5.420;2023-04-03T03:47:56;2.63;;;0.95;;
75417;SDS011;63997;52.112;5.420;2023-04-03T03:50:23;4.68;;;0.80;;
75417;SDS011;63997;52.112;5.420;2023-04-03T03:52:49;3.63;;;0.80;;
75417;SDS011;63997;52.112;5.420;2023-04-03T03:55:16;1.47;;;0.80;;
75417;SDS011;63997;52.112;5.420;2023-04-03T03:57:42;2.78;;;0.82;;
75417;SDS011;63997;52.112;5.420;2023-04-03T04:00:09;1.88;;;0.60;;
75417;SDS011;63997;52.112;5.420;2023-04-03T04:02:36;1.92;;;0.90;;
75417;SDS011;63997;52.112;5.420;2023-04-03T04:05:03;3.95;;;0.90;;
75417;SDS011;63997;52.112;5.420;2023-04-03T04:07:29;2.53;;;0.87;;
75417;SDS011;63997;52.112;5.420;2023-04-03T04:09:56;2.65;;;0.75;;
75417;SDS011;63997;52.112;5.420;2023-04-03T04:12:22;1.63;;;0.80;;
75417;SDS011;63997;52.112;5.420;2023-04-03T04:14:49;2.38;;;0.68;;
75417;SDS011;63997;52.112;5.420;2023-04-03T04:17:15;4.75;;;0.77;;
75417;SDS011;63997;52.112;5.420;2023-04-03T04:19:41;2.83;;;0.97;;
75417;SDS011;63997;52.112;5.420;2023-04-03T04:22:08;4.18;;;1.20;;
75417;SDS011;63997;52.112;5.420;2023-04-03T04:24:34;2.13;;;0.88;;
75417;SDS011;63997;52.112;5.420;2023-04-03T04:27:03;3.00;;;0.98;;
75417;SDS011;63997;52.112;5.420;2023-04-03T04:29:29;3.72;;;1.08;;
75417;SDS011;63997;52.112;5.420;2023-04-03T04:32:01;3.30;;;0.90;;
75417;SDS011;63997;52.112;5.420;2023-04-03T04:34:28;2.10;;;0.68;;
75417;SDS011;63997;52.112;5.420;2023-04-03T04:36:56;2.25;;;0.70;;
75417;SDS011;63997;52.112;5.420;2023-04-03T04:39:22;5.18;;;0.73;;
75417;SDS011;63997;52.112;5.420;2023-04-03T04:41:49;4.82;;;1.30;;
75417;SDS011;63997;52.112;5.420;2023-04-03T04:44:15;3.23;;;0.90;;
75417;SDS011;63997;52.112;5.420;2023-04-03T04:46:42;2.25;;;0.85;;
75417;SDS011;63997;52.112;5.420;2023-04-03T04:49:08;1.60;;;0.82;;
75417;SDS011;63997;52.112;5.420;2023-04-03T04:51:34;3.58;;;1.20;;
75417;SDS011;63997;52.112;5.420;2023-04-03T04:54:16;2.25;;;1.20;;
75417;SDS011;63997;52.112;5.420;2023-04-03T04:56:43;1.37;;;0.73;;
75417;SDS011;63997;52.112;5.420;2023-04-03T04:59:09;2.63;;;1.00;;
75417;SDS011;63997;52.112;5.420;2023-04-03T05:01:36;1.77;;;0.82;;
75417;SDS011;63997;52.112;5.420;2023-04-03T05:04:02;2.90;;;0.65;;
75417;SDS011;63997;52.112;5.420;2023-04-03T05:06:29;4.28;;;1.40;;
75417;SDS011;63997;52.112;5.420;2023-04-03T05:08:58;2.60;;;0.70;;
75417;SDS011;63997;52.112;5.420;2023-04-03T05:11:24;4.60;;;1.13;;
75417;SDS011;63997;52.112;5.420;2023-04-03T05:13:51;5.55;;;1.00;;
75417;SDS011;63997;52.112;5.420;2023-04-03T05:16:18;2.25;;;1.10;;
75417;SDS011;63997;52.112;5.420;2023-04-03T05:18:44;4.88;;;1.17;;
75417;SDS011;63997;52.112;5.420;2023-04-03T05:21:11;3.67;;;1.00;;
75417;SDS011;63997;52.112;5.420;2023-04-03T05:23:37;4.18;;;1.33;;
75417;SDS011;63997;52.112;5.420;2023-04-03T05:26:03;7.13;;;1.17;;
75417;SDS011;63997;52.112;5.420;2023-04-03T05:28:30;6.40;;;0.85;;
75417;SDS011;63997;52.112;5.420;2023-04-03T05:30:57;3.35;;;1.02;;
75417;SDS011;63997;52.112;5.420;2023-04-03T05:33:24;6.63;;;1.20;;
75417;SDS011;63997;52.112;5.420;2023-04-03T05:35:52;7.40;;;1.20;;
75417;SDS011;63997;52.112;5.420;2023-04-03T05:38:20;5.18;;;1.42;;
75417;SDS011;63997;52.112;5.420;2023-04-03T05:40:47;4.43;;;1.40;;
75417;SDS011;63997;52.112;5.420;2023-04-03T05:43:13;4.22;;;1.40;;
75417;SDS011;63997;52.112;5.420;2023-04-03T05:45:40;3.83;;;1.10;;
75417;SDS011;63997;52.112;5.420;2023-04-03T05:48:06;3.38;;;0.93;;
75417;SDS011;63997;52.112;5.420;2023-04-03T05:50:33;2.78;;;1.23;;
75417;SDS011;63997;52.112;5.420;2023-04-03T05:52:59;6.05;;;1.30;;
75417;SDS011;63997;52.112;5.420;2023-04-03T05:55:28;6.32;;;1.23;;
75417;SDS011;63997;52.112;5.420;2023-04-03T05:57:54;3.60;;;1.13;;
75417;SDS011;63997;52.112;5.420;2023-04-03T06:00:21;3.72;;;1.23;;
75417;SDS011;63997;52.112;5.420;2023-04-03T06:02:47;6.25;;;1.63;;
75417;SDS011;63997;52.112;5.420;2023-04-03T06:05:14;2.72;;;1.20;;
75417;SDS011;63997;52.112;5.420;2023-04-03T06:07:41;3.08;;;1.30;;
75417;SDS011;63997;52.112;5.420;2023-04-03T06:10:10;2.50;;;1.20;;
75417;SDS011;63997;52.112;5.420;2023-04-03T06:12:38;3.63;;;1.20;;
75417;SDS011;63997;52.112;5.420;2023-04-03T06:15:04;4.28;;;1.00;;
75417;SDS011;63997;52.112;5.420;2023-04-03T06:17:31;2.50;;;0.88;;
75417;SDS011;63997;52.112;5.420;2023-04-03T06:19:58;3.13;;;1.05;;
75417;SDS011;63997;52.112;5.420;2023-04-03T06:22:24;4.43;;;1.07;;
75417;SDS011;63997;52.112;5.420;2023-04-03T06:24:51;3.20;;;1.25;;
75417;SDS011;63997;52.112;5.420;2023-04-03T06:27:18;5.43;;;1.52;;
75417;SDS011;63997;52.112;5.420;2023-04-03T06:29:44;3.75;;;0.98;;
75417;SDS011;63997;52.112;5.420;2023-04-03T06:32:11;3.35;;;0.98;;
75417;SDS011;63997;52.112;5.420;2023-04-03T06:34:37;4.30;;;0.80;;
75417;SDS011;63997;52.112;5.420;2023-04-03T06:37:04;1.00;;;0.80;;
75417;SDS011;63997;52.112;5.420;2023-04-03T06:39:30;2.22;;;0.82;;
75417;SDS011;63997;52.112;5.420;2023-04-03T06:41:57;3.47;;;1.08;;
75417;SDS011;63997;52.112;5.420;2023-04-03T06:44:23;2.38;;;1.42;;
75417;SDS011;63997;52.112;5.420;2023-04-03T06:46:49;5.90;;;1.30;;
75417;SDS011;63997;52.112;5.420;2023-04-03T06:49:17;5.40;;;1.30;;
75417;SDS011;63997;52.112;5.420;2023-04-03T06:51:44;3.15;;;0.85;;
75417;SDS011;63997;52.112;5.420;2023-04-03T06:54:10;2.63;;;1.00;;
75417;SDS011;63997;52.112;5.420;2023-04-03T06:56:37;3.92;;;1.15;;
75417;SDS011;63997;52.112;5.420;2023-04-03T06:59:03;2.80;;;1.00;;
75417;SDS011;63997;52.112;5.420;2023-04-03T07:01:30;3.90;;;1.08;;
75417;SDS011;63997;52.112;5.420;2023-04-03T07:03:56;2.25;;;0.90;;
75417;SDS011;63997;52.112;5.420;2023-04-03T07:06:23;4.68;;;1.25;;
75417;SDS011;63997;52.112;5.420;2023-04-03T07:08:52;3.90;;;1.20;;
75417;SDS011;63997;52.112;5.420;2023-04-03T07:11:20;4.37;;;1.00;;
75417;SDS011;63997;52.112;5.420;2023-04-03T07:13:46;2.90;;;1.25;;
75417;SDS011;63997;52.112;5.420;2023-04-03T07:16:12;1.55;;;0.85;;
75417;SDS011;63997;52.112;5.420;2023-04-03T07:18:39;3.35;;;1.00;;
75417;SDS011;63997;52.112;5.420;2023-04-03T07:21:06;2.70;;;1.08;;
75417;SDS011;63997;52.112;5.420;2023-04-03T07:23:32;2.57;;;0.80;;
75417;SDS011;63997;52.112;5.420;2023-04-03T07:25:59;2.60;;;0.95;;
75417;SDS011;63997;52.112;5.420;2023-04-03T07:28:25;3.47;;;1.20;;
75417;SDS011;63997;52.112;5.420;2023-04-03T07:31:12;2.80;;;0.88;;
75417;SDS011;63997;52.112;5.420;2023-04-03T07:33:39;2.83;;;1.30;;
75417;SDS011;63997;52.112;5.420;2023-04-03T07:36:07;4.17;;;1.10;;
75417;SDS011;63997;52.112;5.420;2023-04-03T07:38:34;3.00;;;0.90;;
75417;SDS011;63997;52.112;5.420;2023-04-03T07:41:02;4.57;;;1.63;;
75417;SDS011;63997;52.112;5.420;2023-04-03T07:43:29;2.95;;;1.15;;
75417;SDS011;63997;52.112;5.420;2023-04-03T07:45:56;2.40;;;0.90;;
75417;SDS011;63997;52.112;5.420;2023-04-03T07:48:23;2.40;;;0.80;;
75417;SDS011;63997;52.112;5.420;2023-04-03T07:50:51;3.05;;;0.90;;
75417;SDS011;63997;52.112;5.420;2023-04-03T07:53:18;4.20;;;1.10;;
75417;SDS011;63997;52.112;5.420;2023-04-03T07:55:48;4.82;;;1.08;;
75417;SDS011;63997;52.112;5.420;2023-04-03T07:58:16;1.92;;;0.88;;
75417;SDS011;63997;52.112;5.420;2023-04-03T08:00:43;2.50;;;0.80;;
75417;SDS011;63997;52.112;5.420;2023-04-03T08:03:10;3.80;;;0.73;;
75417;SDS011;63997;52.112;5.420;2023-04-03T08:05:41;2.03;;;0.50;;
75417;SDS011;63997;52.112;5.420;2023-04-03T08:08:12;3.10;;;0.65;;
75417;SDS011;63997;52.112;5.420;2023-04-03T08:10:40;2.63;;;1.00;;
75417;SDS011;63997;52.112;5.420;2023-04-03T08:13:08;4.67;;;1.10;;
75417;SDS011;63997;52.112;5.420;2023-04-03T08:15:35;3.70;;;0.70;;
75417;SDS011;63997;52.112;5.420;2023-04-03T08:18:03;2.38;;;0.82;;
75417;SDS011;63997;52.112;5.420;2023-04-03T08:20:30;1.65;;;0.60;;
75417;SDS011;63997;52.112;5.420;2023-04-03T08:22:56;2.60;;;0.80;;
75417;SDS011;63997;52.112;5.420;2023-04-03T08:25:23;2.13;;;0.63;;
75417;SDS011;63997;52.112;5.420;2023-04-03T08:27:49;1.10;;;0.65;;
75417;SDS011;63997;52.112;5.420;2023-04-03T08:30:16;3.10;;;0.70;;
75417;SDS011;63997;52.112;5.420;2023-04-03T08:32:42;6.80;;;1.02;;
75417;SDS011;63997;52.112;5.420;2023-04-03T08:35:10;3.30;;;0.65;;
75417;SDS011;63997;52.112;5.420;2023-04-03T08:37:36;3.33;;;0.80;;
75417;SDS011;63997;52.112;5.420;2023-04-03T08:40:05;1.83;;;0.40;;
75417;SDS011;63997;52.112;5.420;2023-04-03T08:45:44;3.45;;;0.63;;
75417;SDS011;63997;52.112;5.420;2023-04-03T08:48:20;2.28;;;0.40;;
75417;SDS011;63997;52.112;5.420;2023-04-03T08:50:51;1.47;;;0.50;;
75417;SDS011;63997;52.112;5.420;2023-04-03T08:53:25;0.60;;;0.30;;
75417;SDS011;63997;52.112;5.420;2023-04-03T08:55:58;1.58;;;0.30;;
75417;SDS011;63997;52.112;5.420;2023-04-03T08:58:29;3.10;;;0.50;;
75417;SDS011;63997;52.112;5.420;2023-04-03T09:01:00;1.95;;;0.50;;
75417;SDS011;63997;52.112;5.420;2023-04-03T09:03:35;3.00;;;0.30;;
75417;SDS011;63997;52.112;5.420;2023-04-03T09:06:14;2.10;;;0.40;;
75417;SDS011;63997;52.112;5.420;2023-04-03T09:22:52;1.38;;;0.20;;
75417;SDS011;63997;52.112;5.420;2023-04-03T09:27:52;1.38;;;0.20;;
75417;SDS011;63997;52.112;5.420;2023-04-03T09:30:20;0.50;;;0.20;;
75417;SDS011;63997;52.112;5.420;2023-04-03T09:32:53;0.30;;;0.20;;
75417;SDS011;63997;52.112;5.420;2023-04-03T09:35:23;0.73;;;0.30;;
75417;SDS011;63997;52.112;5.420;2023-04-03T09:40:40;0.30;;;0.20;;
75417;SDS011;63997;52.112;5.420;2023-04-03T09:43:19;0.73;;;0.20;;
75417;SDS011;63997;52.112;5.420;2023-04-03T09:45:51;1.02;;;0.50;;
75417;SDS011;63997;52.112;5.420;2023-04-03T09:55:54;3.23;;;0.20;;
75417;SDS011;63997;52.112;5.420;2023-04-03T09:58:37;0.47;;;0.10;;
75417;SDS011;63997;52.112;5.420;2023-04-03T10:01:32;0.40;;;0.20;;
75417;SDS011;63997;52.112;5.420;2023-04-03T10:06:38;3.63;;;0.13;;
75417;SDS011;63997;52.112;5.420;2023-04-03T10:11:57;1.00;;;0.25;;
75417;SDS011;63997;52.112;5.420;2023-04-03T10:14:28;0.98;;;0.65;;
75417;SDS011;63997;52.112;5.420;2023-04-03T10:17:03;0.30;;;0.10;;
75417;SDS011;63997;52.112;5.420;2023-04-03T10:19:47;0.63;;;0.15;;
75417;SDS011;63997;52.112;5.420;2023-04-03T10:22:20;0.57;;;0.20;;
75417;SDS011;63997;52.112;5.420;2023-04-03T10:25:02;0.80;;;0.20;;
75417;SDS011;63997;52.112;5.420;2023-04-03T10:30:17;1.92;;;0.40;;
75417;SDS011;63997;52.112;5.420;2023-04-03T10:41:03;0.80;;;0.30;;
75417;SDS011;63997;52.112;5.420;2023-04-03T10:46:28;1.75;;;0.10;;
75417;SDS011;63997;52.112;5.420;2023-04-03T10:49:34;0.80;;;0.20;;
75417;SDS011;63997;52.112;5.420;2023-04-03T10:52:12;0.45;;;0.20;;
75417;SDS011;63997;52.112;5.420;2023-04-03T10:57:50;0.82;;;0.20;;
75417;SDS011;63997;52.112;5.420;2023-04-03T11:00:22;0.40;;;0.20;;
75417;SDS011;63997;52.112;5.420;2023-04-03T11:02:57;0.70;;;0.20;;
75417;SDS011;63997;52.112;5.420;2023-04-03T11:08:02;0.85;;;0.20;;
75417;SDS011;63997;52.112;5.420;2023-04-03T11:10:44;1.95;;;0.47;;
75417;SDS011;63997;52.112;5.420;2023-04-03T11:13:14;0.68;;;0.20;;
75417;SDS011;63997;52.112;5.420;2023-04-03T11:15:44;0.77;;;0.23;;
75417;SDS011;63997;52.112;5.420;2023-04-03T11:18:13;0.43;;;0.20;;
75417;SDS011;63997;52.112;5.420;2023-04-03T11:20:44;1.92;;;0.22;;
75417;SDS011;63997;52.112;5.420;2023-04-03T11:23:26;0.57;;;0.32;;
75417;SDS011;63997;52.112;5.420;2023-04-03T11:26:09;1.77;;;0.20;;
75417;SDS011;63997;52.112;5.420;2023-04-03T11:28:38;1.47;;;0.30;;
75417;SDS011;63997;52.112;5.420;2023-04-03T11:31:40;0.50;;;0.10;;
75417;SDS011;63997;52.112;5.420;2023-04-03T11:36:58;1.33;;;0.30;;
75417;SDS011;63997;52.112;5.420;2023-04-03T11:39:28;0.63;;;0.47;;
75417;SDS011;63997;52.112;5.420;2023-04-03T11:42:14;1.17;;;0.30;;
75417;SDS011;63997;52.112;5.420;2023-04-03T11:44:41;1.10;;;0.20;;
75417;SDS011;63997;52.112;5.420;2023-04-03T11:47:09;1.42;;;0.30;;
75417;SDS011;63997;52.112;5.420;2023-04-03T11:49:54;1.23;;;0.28;;
75417;SDS011;63997;52.112;5.420;2023-04-03T11:52:53;2.67;;;0.30;;
75417;SDS011;63997;52.112;5.420;2023-04-03T12:05:52;0.77;;;0.20;;
75417;SDS011;63997;52.112;5.420;2023-04-03T12:08:24;0.73;;;0.40;;
75417;SDS011;63997;52.112;5.420;2023-04-03T12:26:51;1.70;;;0.30;;
75417;SDS011;63997;52.112;5.420;2023-04-03T12:29:33;0.40;;;0.30;;
75417;SDS011;63997;52.112;5.420;2023-04-03T12:43:08;1.92;;;0.30;;
75417;SDS011;63997;52.112;5.420;2023-04-03T12:45:46;1.42;;;0.40;;
75417;SDS011;63997;52.112;5.420;2023-04-03T12:48:20;1.20;;;0.30;;
75417;SDS011;63997;52.112;5.420;2023-04-03T12:50:52;0.50;;;0.35;;
75417;SDS011;63997;52.112;5.420;2023-04-03T12:53:19;0.82;;;0.50;;
75417;SDS011;63997;52.112;5.420;2023-04-03T12:55:55;3.72;;;0.50;;
75417;SDS011;63997;52.112;5.420;2023-04-03T12:58:24;1.00;;;0.50;;
75417;SDS011;63997;52.112;5.420;2023-04-03T13:01:00;1.77;;;0.30;;
75417;SDS011;63997;52.112;5.420;2023-04-03T13:03:29;1.60;;;0.50;;
75417;SDS011;63997;52.112;5.420;2023-04-03T13:05:58;4.70;;;0.45;;
75417;SDS011;63997;52.112;5.420;2023-04-03T13:08:26;0.70;;;0.30;;
75417;SDS011;63997;52.112;5.420;2023-04-03T13:11:06;0.85;;;0.45;;
75417;SDS011;63997;52.112;5.420;2023-04-03T13:13:37;0.93;;;0.33;;
75417;SDS011;63997;52.112;5.420;2023-04-03T13:16:09;0.47;;;0.32;;
75417;SDS011;63997;52.112;5.420;2023-04-03T13:18:37;1.05;;;0.50;;
75417;SDS011;63997;52.112;5.420;2023-04-03T13:21:05;0.88;;;0.30;;
75417;SDS011;63997;52.112;5.420;2023-04-03T13:23:38;2.30;;;0.47;;
75417;SDS011;63997;52.112;5.420;2023-04-03T13:26:06;3.60;;;0.73;;
75417;SDS011;63997;52.112;5.420;2023-04-03T13:28:33;2.63;;;0.40;;
75417;SDS011;63997;52.112;5.420;2023-04-03T13:31:04;3.13;;;0.57;;
75417;SDS011;63997;52.112;5.420;2023-04-03T13:33:32;4.35;;;0.45;;
75417;SDS011;63997;52.112;5.420;2023-04-03T13:36:05;1.52;;;0.32;;
75417;SDS011;63997;52.112;5.420;2023-04-03T13:38:34;2.03;;;0.50;;
75417;SDS011;63997;52.112;5.420;2023-04-03T13:41:04;0.65;;;0.30;;
75417;SDS011;63997;52.112;5.420;2023-04-03T13:43:48;2.90;;;1.08;;
75417;SDS011;63997;52.112;5.420;2023-04-03T13:48:46;1.48;;;0.43;;
75417;SDS011;63997;52.112;5.420;2023-04-03T13:53:44;1.33;;;0.30;;
75417;SDS011;63997;52.112;5.420;2023-04-03T13:58:57;3.03;;;0.50;;
75417;SDS011;63997;52.112;5.420;2023-04-03T14:01:34;2.08;;;0.30;;
75417;SDS011;63997;52.112;5.420;2023-04-03T14:06:47;2.22;;;0.45;;
75417;SDS011;63997;52.112;5.420;2023-04-03T14:09:16;1.58;;;0.40;;
75417;SDS011;63997;52.112;5.420;2023-04-03T14:11:44;2.75;;;0.43;;
75417;SDS011;63997;52.112;5.420;2023-04-03T14:14:14;2.15;;;0.60;;
75417;SDS011;63997;52.112;5.420;2023-04-03T14:16:43;1.00;;;0.47;;
75417;SDS011;63997;52.112;5.420;2023-04-03T14:19:17;2.50;;;0.50;;
75417;SDS011;63997;52.112;5.420;2023-04-03T14:21:47;2.33;;;0.50;;
75417;SDS011;63997;52.112;5.420;2023-04-03T14:24:13;1.23;;;0.40;;
75417;SDS011;63997;52.112;5.420;2023-04-03T14:26:40;3.28;;;0.60;;
75417;SDS011;63997;52.112;5.420;2023-04-03T14:29:09;0.83;;;0.53;;
75417;SDS011;63997;52.112;5.420;2023-04-03T14:31:36;1.35;;;0.80;;
75417;SDS011;63997;52.112;5.420;2023-04-03T14:34:03;1.48;;;0.50;;
75417;SDS011;63997;52.112;5.420;2023-04-03T14:36:29;0.90;;;0.30;;
75417;SDS011;63997;52.112;5.420;2023-04-03T14:38:57;2.28;;;0.70;;
75417;SDS011;63997;52.112;5.420;2023-04-03T14:41:24;1.37;;;0.50;;
75417;SDS011;63997;52.112;5.420;2023-04-03T14:43:52;4.15;;;0.50;;
75417;SDS011;63997;52.112;5.420;2023-04-03T14:46:29;0.70;;;0.35;;
75417;SDS011;63997;52.112;5.420;2023-04-03T14:49:19;3.38;;;0.50;;
75417;SDS011;63997;52.112;5.420;2023-04-03T14:51:47;2.92;;;0.75;;
75417;SDS011;63997;52.112;5.420;2023-04-03T14:54:15;4.67;;;0.83;;
75417;SDS011;63997;52.112;5.420;2023-04-03T14:56:45;1.85;;;0.57;;
75417;SDS011;63997;52.112;5.420;2023-04-03T14:59:12;2.17;;;0.60;;
75417;SDS011;63997;52.112;5.420;2023-04-03T15:01:40;3.00;;;0.73;;
75417;SDS011;63997;52.112;5.420;2023-04-03T15:04:18;1.02;;;0.63;;
75417;SDS011;63997;52.112;5.420;2023-04-03T15:06:47;2.07;;;0.87;;
75417;SDS011;63997;52.112;5.420;2023-04-03T15:09:19;1.67;;;0.57;;
75417;SDS011;63997;52.112;5.420;2023-04-03T15:11:48;2.15;;;0.73;;
75417;SDS011;63997;52.112;5.420;2023-04-03T15:14:17;1.70;;;0.65;;
75417;SDS011;63997;52.112;5.420;2023-04-03T15:17:02;2.95;;;0.77;;
75417;SDS011;63997;52.112;5.420;2023-04-03T15:19:36;2.63;;;0.57;;
75417;SDS011;63997;52.112;5.420;2023-04-03T15:22:04;2.60;;;0.50;;
75417;SDS011;63997;52.112;5.420;2023-04-03T15:24:31;2.70;;;0.70;;
75417;SDS011;63997;52.112;5.420;2023-04-03T15:26:57;2.13;;;0.77;;
75417;SDS011;63997;52.112;5.420;2023-04-03T15:29:23;1.73;;;0.63;;
75417;SDS011;63997;52.112;5.420;2023-04-03T15:31:50;3.83;;;0.60;;
75417;SDS011;63997;52.112;5.420;2023-04-03T15:34:19;1.90;;;0.70;;
75417;SDS011;63997;52.112;5.420;2023-04-03T15:36:48;2.63;;;0.40;;
75417;SDS011;63997;52.112;5.420;2023-04-03T15:39:16;1.45;;;0.60;;
75417;SDS011;63997;52.112;5.420;2023-04-03T15:41:42;2.83;;;0.70;;
75417;SDS011;63997;52.112;5.420;2023-04-03T15:44:08;1.87;;;0.50;;
75417;SDS011;63997;52.112;5.420;2023-04-03T15:46:35;1.08;;;0.45;;
75417;SDS011;63997;52.112;5.420;2023-04-03T15:49:01;1.80;;;0.65;;
75417;SDS011;63997;52.112;5.420;2023-04-03T15:51:28;2.15;;;0.60;;
75417;SDS011;63997;52.112;5.420;2023-04-03T15:53:54;4.07;;;0.60;;
75417;SDS011;63997;52.112;5.420;2023-04-03T15:56:21;2.10;;;0.60;;
75417;SDS011;63997;52.112;5.420;2023-04-03T15:58:47;2.97;;;0.70;;
75417;SDS011;63997;52.112;5.420;2023-04-03T16:01:13;2.95;;;0.60;;
75417;SDS011;63997;52.112;5.420;2023-04-03T16:03:41;2.78;;;0.50;;
75417;SDS011;63997;52.112;5.420;2023-04-03T16:06:14;3.30;;;0.70;;
75417;SDS011;63997;52.112;5.420;2023-04-03T16:08:41;2.63;;;0.50;;
75417;SDS011;63997;52.112;5.420;2023-04-03T16:11:08;3.92;;;0.70;;
75417;SDS011;63997;52.112;5.420;2023-04-03T16:13:35;1.48;;;0.73;;
75417;SDS011;63997;52.112;5.420;2023-04-03T16:16:01;2.65;;;0.60;;
75417;SDS011;63997;52.112;5.420;2023-04-03T16:18:28;1.90;;;0.63;;
75417;SDS011;63997;52.112;5.420;2023-04-03T16:20:55;2.57;;;0.60;;
75417;SDS011;63997;52.112;5.420;2023-04-03T16:23:22;2.72;;;0.60;;
75417;SDS011;63997;52.112;5.420;2023-04-03T16:25:49;2.28;;;0.95;;
75417;SDS011;63997;52.112;5.420;2023-04-03T16:28:16;2.53;;;0.68;;
75417;SDS011;63997;52.112;5.420;2023-04-03T16:30:44;1.98;;;0.60;;
75417;SDS011;63997;52.112;5.420;2023-04-03T16:33:12;2.90;;;0.50;;
75417;SDS011;63997;52.112;5.420;2023-04-03T16:35:38;2.85;;;0.73;;
75417;SDS011;63997;52.112;5.420;2023-04-03T16:38:05;2.80;;;0.90;;
75417;SDS011;63997;52.112;5.420;2023-04-03T16:40:31;2.67;;;0.70;;
75417;SDS011;63997;52.112;5.420;2023-04-03T16:43:00;3.42;;;0.80;;
75417;SDS011;63997;52.112;5.420;2023-04-03T16:45:27;1.80;;;0.80;;
75417;SDS011;63997;52.112;5.420;2023-04-03T16:47:53;3.30;;;0.52;;
75417;SDS011;63997;52.112;5.420;2023-04-03T16:50:20;2.33;;;0.80;;